Time,TemperatureF,DewpointF,PressureIn,WindDirection,WindDirectionDegrees,WindSpeedMPH,WindSpeedGustMPH,Humidity,HourlyPrecipIn,Conditions,Clouds,dailyrainin,SoftwareType,DateUTC
2017-04-25 00:04:00,52.1,50.4,30.08,NE,45,11.0,20.0,94,0.00,,---,0.00,VWS V14.01,2017-04-25 04:04:00,
2017-04-25 00:09:00,52.1,50.4,30.08,NE,45,12.0,20.0,94,0.00,,---,0.00,VWS V14.01,2017-04-25 04:09:00,
2017-04-25 00:14:00,52.2,50.5,30.08,NE,51,18.0,20.0,94,0.00,,---,0.00,VWS V14.01,2017-04-25 04:14:00,
2017-04-25 00:19:00,52.0,50.3,30.08,NE,47,15.0,20.0,94,0.00,,---,0.00,VWS V14.01,2017-04-25 04:19:00,
2017-04-25 00:24:00,52.1,50.4,30.08,NE,51,13.0,20.0,94,0.00,,---,0.00,VWS V14.01,2017-04-25 04:24:00,
2017-04-25 00:29:00,52.0,50.3,30.08,NE,53,16.0,18.0,94,0.00,,---,0.00,VWS V14.01,2017-04-25 04:29:00,
2017-04-25 00:34:00,52.0,50.3,30.07,NE,47,15.0,19.0,94,0.00,,---,0.00,VWS V14.01,2017-04-25 04:34:00,
2017-04-25 00:35:00,52.0,50.3,30.08,NE,49,13.0,19.0,94,0.00,,---,0.00,VWS V14.01,2017-04-25 04:35:00,
2017-04-25 00:40:00,51.7,50.0,30.07,NE,36,13.0,19.0,94,0.00,,---,0.00,VWS V14.01,2017-04-25 04:40:00,
2017-04-25 00:45:00,51.6,49.9,30.07,NE,44,18.0,19.0,94,0.00,,---,0.00,VWS V14.01,2017-04-25 04:45:00,
2017-04-25 00:50:00,51.5,49.8,30.07,NE,43,15.0,19.0,94,0.00,,---,0.00,VWS V14.01,2017-04-25 04:50:00,
2017-04-25 00:55:00,51.6,49.9,30.07,NE,43,12.0,19.0,94,0.00,,---,0.00,VWS V14.01,2017-04-25 04:55:00,
2017-04-25 01:00:00,51.5,49.8,30.07,NE,49,14.0,18.0,94,0.00,,---,0.00,VWS V14.01,2017-04-25 05:00:00,
2017-04-25 01:05:00,51.6,49.9,30.07,NE,39,12.0,18.0,94,0.00,,---,0.00,VWS V14.01,2017-04-25 05:05:00,
2017-04-25 01:10:00,51.3,49.6,30.07,NE,40,15.0,19.0,94,0.00,,---,0.00,VWS V14.01,2017-04-25 05:10:00,
2017-04-25 01:15:00,51.4,49.7,30.06,NE,40,13.0,19.0,94,0.00,,---,0.00,VWS V14.01,2017-04-25 05:15:00,
2017-04-25 01:20:00,51.3,49.6,30.06,NE,44,11.0,19.0,94,0.00,,---,0.00,VWS V14.01,2017-04-25 05:20:00,
2017-04-25 01:25:00,51.3,49.6,30.06,NE,42,17.0,19.0,94,0.00,,---,0.00,VWS V14.01,2017-04-25 05:25:00,
2017-04-25 01:30:00,51.0,49.3,30.06,NE,41,11.0,18.0,94,0.00,,---,0.00,VWS V14.01,2017-04-25 05:30:00,
2017-04-25 01:36:00,51.0,49.3,30.06,NE,39,16.0,18.0,94,0.00,,---,0.00,VWS V14.01,2017-04-25 05:36:00,
2017-04-25 01:41:00,50.9,49.2,30.06,NE,44,12.0,19.0,94,0.00,,---,0.00,VWS V14.01,2017-04-25 05:41:00,
2017-04-25 01:46:00,51.0,49.3,30.06,NNE,32,13.0,19.0,94,0.00,,---,0.00,VWS V14.01,2017-04-25 05:46:00,
2017-04-25 01:51:00,51.0,49.3,30.05,NE,41,12.0,19.0,94,0.00,,---,0.00,VWS V14.01,2017-04-25 05:51:00,
2017-04-25 01:56:00,51.2,49.5,30.05,NE,46,15.0,19.0,94,0.00,,---,0.00,VWS V14.01,2017-04-25 05:56:00,
2017-04-25 02:01:00,51.2,49.5,30.05,NE,46,14.0,16.0,94,0.00,,---,0.00,VWS V14.01,2017-04-25 06:01:00,
2017-04-25 02:06:00,51.2,49.5,30.05,NE,44,15.0,18.0,94,0.00,,---,0.00,VWS V14.01,2017-04-25 06:06:00,
2017-04-25 02:11:00,51.2,49.5,30.04,NE,43,14.0,19.0,94,0.00,,---,0.00,VWS V14.01,2017-04-25 06:11:00,
2017-04-25 02:16:00,51.2,49.5,30.04,NE,46,15.0,19.0,94,0.00,,---,0.00,VWS V14.01,2017-04-25 06:16:00,
2017-04-25 02:21:00,51.2,49.5,30.04,NE,36,10.0,19.0,94,0.00,,---,0.00,VWS V14.01,2017-04-25 06:21:00,
2017-04-25 02:22:00,51.3,49.6,30.04,NNE,27,14.0,19.0,94,0.00,,---,0.00,VWS V14.01,2017-04-25 06:22:00,
2017-04-25 02:27:00,51.2,49.5,30.04,NE,44,11.0,19.0,94,0.00,,---,0.00,VWS V14.01,2017-04-25 06:27:00,
2017-04-25 02:32:00,51.2,49.5,30.04,NE,37,13.0,17.0,94,0.00,,---,0.00,VWS V14.01,2017-04-25 06:32:00,
2017-04-25 02:37:00,51.3,49.6,30.03,NNE,27,10.0,17.0,94,0.00,,---,0.00,VWS V14.01,2017-04-25 06:37:00,
2017-04-25 02:42:00,51.2,49.5,30.04,NE,41,11.0,17.0,94,0.00,,---,0.00,VWS V14.01,2017-04-25 06:42:00,
2017-04-25 02:47:00,51.2,49.5,30.03,NE,48,14.0,19.0,94,0.00,,---,0.00,VWS V14.01,2017-04-25 06:47:00,
2017-04-25 02:52:00,51.0,49.3,30.04,NNE,29,16.0,19.0,94,0.00,,---,0.00,VWS V14.01,2017-04-25 06:52:00,
2017-04-25 02:57:00,51.0,49.3,30.03,NE,43,15.0,19.0,94,0.00,,---,0.00,VWS V14.01,2017-04-25 06:57:00,
2017-04-25 03:02:00,50.9,49.2,30.03,NE,36,14.0,17.0,94,0.00,,---,0.00,VWS V14.01,2017-04-25 07:02:00,
2017-04-25 03:07:00,50.8,49.4,30.03,NNE,30,13.0,17.0,95,0.00,,---,0.00,VWS V14.01,2017-04-25 07:07:00,
2017-04-25 03:12:00,50.8,49.4,30.03,NE,40,13.0,19.0,95,0.01,,---,0.01,VWS V14.01,2017-04-25 07:12:00,
2017-04-25 03:17:00,50.8,49.4,30.03,NE,41,17.0,19.0,95,0.01,,---,0.01,VWS V14.01,2017-04-25 07:17:00,
2017-04-25 03:22:00,50.6,49.2,30.03,NE,44,12.0,22.0,95,0.01,,---,0.01,VWS V14.01,2017-04-25 07:22:00,
2017-04-25 03:32:00,50.6,49.2,30.03,NE,39,17.0,19.0,95,0.01,,---,0.01,VWS V14.01,2017-04-25 07:32:00,
2017-04-25 03:37:00,50.7,49.3,30.03,NNE,32,13.0,19.0,95,0.01,,---,0.01,VWS V14.01,2017-04-25 07:37:00,
2017-04-25 03:42:00,50.8,49.4,30.03,NE,39,14.0,19.0,95,0.01,,---,0.01,VWS V14.01,2017-04-25 07:42:00,
2017-04-25 03:47:00,50.7,49.3,30.03,NE,44,13.0,19.0,95,0.02,,---,0.02,VWS V14.01,2017-04-25 07:47:00,
2017-04-25 03:52:00,50.6,49.2,30.03,NE,50,11.0,19.0,95,0.07,,---,0.07,VWS V14.01,2017-04-25 07:52:00,
2017-04-25 03:57:00,50.7,49.3,30.03,NE,46,9.0,19.0,95,0.07,,---,0.07,VWS V14.01,2017-04-25 07:57:00,
2017-04-25 04:02:00,50.8,49.4,30.03,NE,43,12.0,17.0,95,0.07,,---,0.07,VWS V14.01,2017-04-25 08:02:00,
2017-04-25 04:07:00,50.8,49.4,30.03,NE,44,12.0,17.0,95,0.07,,---,0.07,VWS V14.01,2017-04-25 08:07:00,
2017-04-25 04:12:00,50.9,49.5,30.03,NNE,30,15.0,17.0,95,0.07,,---,0.07,VWS V14.01,2017-04-25 08:12:00,
2017-04-25 04:17:00,50.9,49.5,30.03,NE,54,15.0,19.0,95,0.08,,---,0.08,VWS V14.01,2017-04-25 08:17:00,
2017-04-25 04:22:00,50.8,49.4,30.03,NE,51,15.0,19.0,95,0.09,,---,0.09,VWS V14.01,2017-04-25 08:22:00,
2017-04-25 04:27:00,50.9,49.5,30.03,NE,41,9.0,19.0,95,0.09,,---,0.09,VWS V14.01,2017-04-25 08:27:00,
2017-04-25 04:32:00,50.9,49.5,30.03,NNE,32,13.0,17.0,95,0.08,,---,0.09,VWS V14.01,2017-04-25 08:32:00,
2017-04-25 04:37:00,50.9,49.5,30.03,NNE,30,7.0,17.0,95,0.08,,---,0.09,VWS V14.01,2017-04-25 08:37:00,
2017-04-25 04:42:00,50.8,49.4,30.03,NE,41,13.0,17.0,95,0.08,,---,0.09,VWS V14.01,2017-04-25 08:42:00,
2017-04-25 04:47:00,50.9,49.5,30.03,NE,36,15.0,17.0,95,0.08,,---,0.09,VWS V14.01,2017-04-25 08:47:00,
2017-04-25 04:52:00,50.9,49.5,30.04,NE,41,11.0,17.0,95,0.08,,---,0.09,VWS V14.01,2017-04-25 08:52:00,
2017-04-25 04:57:00,50.9,49.5,30.03,NE,45,14.0,17.0,95,0.08,,---,0.09,VWS V14.01,2017-04-25 08:57:00,
2017-04-25 05:02:00,50.9,49.5,30.03,NE,43,11.0,17.0,95,0.02,,---,0.09,VWS V14.01,2017-04-25 09:02:00,
2017-04-25 05:07:00,50.9,49.5,30.02,NE,45,13.0,17.0,95,0.03,,---,0.10,VWS V14.01,2017-04-25 09:07:00,
2017-04-25 05:12:00,50.7,49.3,30.02,NE,41,14.0,17.0,95,0.05,,---,0.12,VWS V14.01,2017-04-25 09:12:00,
2017-04-25 05:17:00,50.7,49.3,30.02,NE,43,20.0,20.0,95,0.05,,---,0.12,VWS V14.01,2017-04-25 09:17:00,
2017-04-25 05:22:00,50.6,49.5,30.02,NE,44,11.0,20.0,96,0.05,,---,0.12,VWS V14.01,2017-04-25 09:22:00,
2017-04-25 05:27:00,50.6,49.5,30.02,NE,37,16.0,20.0,96,0.05,,---,0.12,VWS V14.01,2017-04-25 09:27:00,
2017-04-25 05:32:00,50.6,49.5,30.02,NE,43,14.0,19.0,96,0.03,,---,0.12,VWS V14.01,2017-04-25 09:32:00,
2017-04-25 05:37:00,50.8,49.7,30.02,NE,38,10.0,19.0,96,0.03,,---,0.12,VWS V14.01,2017-04-25 09:37:00,
2017-04-25 05:42:00,50.6,49.5,30.02,NNE,22,16.0,20.0,96,0.03,,---,0.12,VWS V14.01,2017-04-25 09:42:00,
2017-04-25 05:47:00,50.5,49.4,30.01,NNE,23,13.0,20.0,96,0.03,,---,0.12,VWS V14.01,2017-04-25 09:47:00,
2017-04-25 05:52:00,50.5,49.4,30.02,NE,39,14.0,20.0,96,0.03,,---,0.12,VWS V14.01,2017-04-25 09:52:00,
2017-04-25 05:57:00,50.5,49.4,30.02,NNE,25,17.0,20.0,96,0.03,,---,0.12,VWS V14.01,2017-04-25 09:57:00,
2017-04-25 06:02:00,50.6,49.5,30.02,NE,43,13.0,17.0,96,0.03,,---,0.12,VWS V14.01,2017-04-25 10:02:00,
2017-04-25 06:07:00,50.6,49.5,30.02,NE,43,15.0,17.0,96,0.03,,---,0.12,VWS V14.01,2017-04-25 10:07:00,
2017-04-25 06:13:00,50.6,49.5,30.02,NNE,30,14.0,17.0,96,0.03,,---,0.12,VWS V14.01,2017-04-25 10:13:00,
2017-04-25 06:18:00,50.6,49.5,30.02,NNE,29,11.0,18.0,96,0.03,,---,0.12,VWS V14.01,2017-04-25 10:18:00,
2017-04-25 06:23:00,50.7,49.6,30.02,NNE,19,14.0,18.0,96,0.03,,---,0.12,VWS V14.01,2017-04-25 10:23:00,
2017-04-25 06:24:00,50.8,49.7,30.02,NNE,22,9.0,18.0,96,0.03,,---,0.12,VWS V14.01,2017-04-25 10:24:00,
2017-04-25 06:29:00,50.8,49.7,30.02,NE,36,10.0,13.0,96,0.00,,---,0.12,VWS V14.01,2017-04-25 10:29:00,
2017-04-25 06:34:00,50.8,49.7,30.02,NE,37,14.0,17.0,96,0.00,,---,0.12,VWS V14.01,2017-04-25 10:34:00,
2017-04-25 06:39:00,50.8,49.7,30.03,NNE,27,12.0,17.0,96,0.00,,---,0.12,VWS V14.01,2017-04-25 10:39:00,
2017-04-25 06:44:00,50.8,49.7,30.03,NNE,25,13.0,17.0,96,0.00,,---,0.12,VWS V14.01,2017-04-25 10:44:00,
2017-04-25 06:49:00,50.8,49.7,30.03,NE,41,12.0,17.0,96,0.00,,---,0.12,VWS V14.01,2017-04-25 10:49:00,
2017-04-25 06:54:00,50.7,49.6,30.03,NNE,29,13.0,19.0,96,0.00,,---,0.12,VWS V14.01,2017-04-25 10:54:00,
2017-04-25 06:59:00,50.6,49.5,30.02,NNE,27,15.0,18.0,96,0.00,,---,0.12,VWS V14.01,2017-04-25 10:59:00,
2017-04-25 07:04:00,50.6,49.5,30.02,NNE,29,17.0,19.0,96,0.00,,---,0.12,VWS V14.01,2017-04-25 11:04:00,
2017-04-25 07:09:00,50.6,49.5,30.02,NE,43,17.0,19.0,96,0.00,,---,0.12,VWS V14.01,2017-04-25 11:09:00,
2017-04-25 07:14:00,50.7,49.6,30.03,NE,37,18.0,19.0,96,0.00,,---,0.12,VWS V14.01,2017-04-25 11:14:00,
2017-04-25 07:19:00,50.7,49.6,30.03,NNE,33,17.0,20.0,96,0.00,,---,0.12,VWS V14.01,2017-04-25 11:19:00,
2017-04-25 07:24:00,50.7,49.6,30.03,NNE,14,14.0,20.0,96,0.00,,---,0.12,VWS V14.01,2017-04-25 11:24:00,
2017-04-25 07:29:00,50.7,49.6,30.03,NNE,32,16.0,17.0,96,0.00,,---,0.12,VWS V14.01,2017-04-25 11:29:00,
2017-04-25 07:34:00,50.6,49.5,30.03,NNE,32,21.0,21.0,96,0.00,,---,0.12,VWS V14.01,2017-04-25 11:34:00,
2017-04-25 07:39:00,50.6,49.5,30.03,NE,34,18.0,21.0,96,0.00,,---,0.12,VWS V14.01,2017-04-25 11:39:00,
2017-04-25 07:44:00,50.6,49.5,30.03,NE,40,12.0,21.0,96,0.00,,---,0.12,VWS V14.01,2017-04-25 11:44:00,
2017-04-25 07:49:00,50.6,49.5,30.03,NE,37,15.0,21.0,96,0.00,,---,0.12,VWS V14.01,2017-04-25 11:49:00,
2017-04-25 07:54:00,50.7,49.6,30.03,NE,47,15.0,21.0,96,0.00,,---,0.12,VWS V14.01,2017-04-25 11:54:00,
2017-04-25 07:59:00,50.7,49.6,30.03,NNE,25,15.0,15.0,96,0.00,,---,0.12,VWS V14.01,2017-04-25 11:59:00,
2017-04-25 08:04:00,50.7,49.6,30.04,NE,34,14.0,19.0,96,0.00,,---,0.12,VWS V14.01,2017-04-25 12:04:00,
2017-04-25 08:09:00,50.7,49.6,30.04,NE,43,20.0,20.0,96,0.00,,---,0.12,VWS V14.01,2017-04-25 12:09:00,
2017-04-25 08:14:00,50.6,49.5,30.04,NNE,26,11.0,20.0,96,0.00,,---,0.12,VWS V14.01,2017-04-25 12:14:00,
2017-04-25 08:19:00,50.6,49.5,30.04,NNE,26,15.0,20.0,96,0.00,,---,0.12,VWS V14.01,2017-04-25 12:19:00,
2017-04-25 08:24:00,50.6,49.5,30.04,NE,43,17.0,20.0,96,0.00,,---,0.12,VWS V14.01,2017-04-25 12:24:00,
2017-04-25 08:29:00,50.6,49.5,30.04,NE,46,13.0,16.0,96,0.00,,---,0.12,VWS V14.01,2017-04-25 12:29:00,
2017-04-25 08:34:00,50.5,49.4,30.03,North,11,15.0,18.0,96,0.00,,---,0.12,VWS V14.01,2017-04-25 12:34:00,
2017-04-25 08:39:00,50.6,49.5,30.03,NE,34,12.0,18.0,96,0.00,,---,0.12,VWS V14.01,2017-04-25 12:39:00,
2017-04-25 08:44:00,50.6,49.5,30.04,NNE,20,20.0,20.0,96,0.00,,---,0.12,VWS V14.01,2017-04-25 12:44:00,
2017-04-25 08:49:00,50.8,49.7,30.04,NE,43,17.0,22.0,96,0.00,,---,0.12,VWS V14.01,2017-04-25 12:49:00,
2017-04-25 08:54:00,51.0,49.9,30.04,NE,43,17.0,22.0,96,0.01,,---,0.13,VWS V14.01,2017-04-25 12:54:00,
2017-04-25 08:59:00,51.2,50.1,30.04,NE,43,16.0,21.0,96,0.01,,---,0.13,VWS V14.01,2017-04-25 12:59:00,
2017-04-25 09:04:00,51.2,50.1,30.03,NE,47,21.0,24.0,96,0.01,,---,0.13,VWS V14.01,2017-04-25 13:04:00,
2017-04-25 09:09:00,51.0,49.9,30.04,NE,46,20.0,24.0,96,0.01,,---,0.13,VWS V14.01,2017-04-25 13:09:00,
2017-04-25 09:14:00,51.0,49.9,30.03,NE,45,17.0,24.0,96,0.01,,---,0.13,VWS V14.01,2017-04-25 13:14:00,
2017-04-25 09:19:00,51.0,49.9,30.03,NE,55,24.0,24.0,96,0.01,,---,0.13,VWS V14.01,2017-04-25 13:19:00,
2017-04-25 09:24:00,51.1,50.0,30.03,NE,46,20.0,26.0,96,0.01,,---,0.13,VWS V14.01,2017-04-25 13:24:00,
2017-04-25 09:29:00,51.0,49.9,30.02,NE,43,18.0,21.0,96,0.01,,---,0.13,VWS V14.01,2017-04-25 13:29:00,
2017-04-25 09:34:00,51.0,49.9,30.03,NE,41,20.0,24.0,96,0.01,,---,0.13,VWS V14.01,2017-04-25 13:34:00,
2017-04-25 09:40:00,51.0,49.9,30.03,NNE,26,15.0,24.0,96,0.01,,---,0.13,VWS V14.01,2017-04-25 13:40:00,
2017-04-25 09:45:00,51.0,49.9,30.03,NNE,25,15.0,24.0,96,0.01,,---,0.13,VWS V14.01,2017-04-25 13:45:00,
2017-04-25 09:50:00,50.9,49.8,30.03,NE,38,13.0,24.0,96,0.01,,---,0.13,VWS V14.01,2017-04-25 13:50:00,
2017-04-25 09:54:00,51.0,50.2,30.03,NNE,27,15.0,24.0,97,0.01,,---,0.13,VWS V14.01,2017-04-25 13:54:00,
2017-04-25 09:59:00,51.0,50.2,30.02,NE,41,17.0,18.0,97,0.00,,---,0.13,VWS V14.01,2017-04-25 13:59:00,
2017-04-25 10:04:00,51.2,50.4,30.02,NNE,30,12.0,21.0,97,0.00,,---,0.13,VWS V14.01,2017-04-25 14:04:00,
2017-04-25 10:09:00,51.2,50.4,30.02,NE,34,14.0,21.0,97,0.00,,---,0.13,VWS V14.01,2017-04-25 14:09:00,
2017-04-25 10:14:00,51.1,50.3,30.02,NE,45,18.0,21.0,97,0.00,,---,0.13,VWS V14.01,2017-04-25 14:14:00,
2017-04-25 10:20:00,51.1,50.3,30.02,NNE,32,15.0,21.0,97,0.00,,---,0.13,VWS V14.01,2017-04-25 14:20:00,
2017-04-25 10:25:00,51.3,50.5,30.02,NE,50,15.0,21.0,97,0.00,,---,0.13,VWS V14.01,2017-04-25 14:25:00,
2017-04-25 10:35:00,51.0,50.2,30.02,NE,43,16.0,22.0,97,0.00,,---,0.13,VWS V14.01,2017-04-25 14:35:00,
2017-04-25 10:40:00,50.9,50.1,30.02,NE,37,16.0,23.0,97,0.00,,---,0.13,VWS V14.01,2017-04-25 14:40:00,
2017-04-25 10:45:00,50.9,50.1,30.02,NNE,32,17.0,23.0,97,0.00,,---,0.13,VWS V14.01,2017-04-25 14:45:00,
2017-04-25 10:50:00,51.1,50.3,30.03,NE,43,18.0,23.0,97,0.00,,---,0.13,VWS V14.01,2017-04-25 14:50:00,
2017-04-25 10:51:00,51.2,50.4,30.03,NE,49,16.0,23.0,97,0.00,,---,0.13,VWS V14.01,2017-04-25 14:51:00,
2017-04-25 10:56:00,51.0,50.2,30.03,NE,40,19.0,23.0,97,0.00,,---,0.13,VWS V14.01,2017-04-25 14:56:00,
2017-04-25 11:01:00,51.0,50.2,30.03,NE,44,15.0,21.0,97,0.00,,---,0.13,VWS V14.01,2017-04-25 15:01:00,
2017-04-25 11:06:00,51.0,50.2,30.04,NE,49,18.0,25.0,97,0.00,,---,0.13,VWS V14.01,2017-04-25 15:06:00,
2017-04-25 11:11:00,51.0,50.2,30.04,NE,56,18.0,25.0,97,0.00,,---,0.13,VWS V14.01,2017-04-25 15:11:00,
2017-04-25 11:16:00,51.1,50.3,30.04,NE,56,21.0,25.0,97,0.00,,---,0.13,VWS V14.01,2017-04-25 15:16:00,
2017-04-25 11:21:00,51.0,50.2,30.03,NE,43,19.0,25.0,97,0.00,,---,0.13,VWS V14.01,2017-04-25 15:21:00,
2017-04-25 11:26:00,51.1,50.3,30.03,NE,54,23.0,27.0,97,0.00,,---,0.13,VWS V14.01,2017-04-25 15:26:00,
2017-04-25 11:31:00,51.2,50.4,30.03,NE,50,23.0,26.0,97,0.01,,---,0.14,VWS V14.01,2017-04-25 15:31:00,
2017-04-25 11:36:00,51.0,50.2,30.02,NE,34,20.0,26.0,97,0.01,,---,0.14,VWS V14.01,2017-04-25 15:36:00,
2017-04-25 11:41:00,51.1,50.3,30.02,NE,52,18.0,26.0,97,0.01,,---,0.14,VWS V14.01,2017-04-25 15:41:00,
2017-04-25 11:46:00,51.0,50.2,30.01,NE,47,19.0,26.0,97,0.01,,---,0.14,VWS V14.01,2017-04-25 15:46:00,
2017-04-25 11:51:00,51.1,50.3,30.01,NE,34,16.0,26.0,97,0.01,,---,0.14,VWS V14.01,2017-04-25 15:51:00,
2017-04-25 11:56:00,50.9,50.1,30.00,NE,41,16.0,26.0,97,0.01,,---,0.14,VWS V14.01,2017-04-25 15:56:00,
2017-04-25 12:06:00,50.6,49.8,30.00,NE,43,19.0,25.0,97,0.01,,---,0.14,VWS V14.01,2017-04-25 16:06:00,
2017-04-25 12:11:00,50.7,49.9,29.99,NE,41,16.0,25.0,97,0.01,,---,0.14,VWS V14.01,2017-04-25 16:11:00,
2017-04-25 12:16:00,50.6,49.8,29.99,NE,45,18.0,25.0,97,0.01,,---,0.14,VWS V14.01,2017-04-25 16:16:00,
2017-04-25 12:21:00,50.6,49.8,29.99,NE,47,16.0,25.0,97,0.01,,---,0.14,VWS V14.01,2017-04-25 16:21:00,
2017-04-25 12:26:00,50.5,49.7,29.99,NE,50,19.0,25.0,97,0.01,,---,0.14,VWS V14.01,2017-04-25 16:26:00,
2017-04-25 12:31:00,50.7,49.9,29.99,NE,48,16.0,22.0,97,0.01,,---,0.14,VWS V14.01,2017-04-25 16:31:00,
2017-04-25 12:36:00,50.8,50.0,29.99,NNE,30,20.0,22.0,97,0.01,,---,0.14,VWS V14.01,2017-04-25 16:36:00,